createdAt,value
2022-08-20T00:01:42.280Z,21.89
2022-08-20T00:04:09.113Z,21.87
2022-08-20T00:06:36.780Z,21.84
2022-08-20T00:09:04.309Z,21.82
2022-08-20T00:11:33.044Z,21.79
2022-08-20T00:14:04.023Z,21.75
2022-08-20T00:16:36.032Z,21.71
2022-08-20T00:19:07.332Z,21.70
2022-08-20T00:21:36.000Z,21.67
2022-08-20T00:24:03.976Z,21.63
2022-08-20T00:26:30.921Z,21.60
2022-08-20T00:28:58.385Z,21.58
2022-08-20T00:31:26.261Z,21.57
2022-08-20T00:33:53.836Z,21.56
2022-08-20T00:36:22.017Z,21.52
2022-08-20T00:38:57.208Z,21.50
2022-08-20T00:41:26.555Z,21.48
2022-08-20T00:44:21.297Z,21.46
2022-08-20T00:46:50.456Z,21.41
2022-08-20T00:49:28.361Z,21.36
2022-08-20T00:51:55.075Z,21.33
2022-08-20T00:54:41.760Z,21.30
2022-08-20T00:57:17.649Z,21.27
2022-08-20T00:59:44.631Z,21.25
2022-08-20T01:02:15.498Z,21.22
2022-08-20T01:04:54.112Z,21.21
2022-08-20T01:07:34.148Z,21.18
2022-08-20T01:10:16.409Z,21.15
2022-08-20T01:12:48.917Z,21.12
2022-08-20T01:15:26.823Z,21.11
2022-08-20T01:18:01.260Z,21.11
2022-08-20T01:20:42.696Z,21.10
2022-08-20T01:23:29.287Z,21.15
2022-08-20T01:26:05.417Z,21.21
2022-08-20T01:29:04.909Z,21.23
2022-08-20T01:31:36.632Z,21.28
2022-08-20T01:34:07.617Z,21.31
2022-08-20T01:36:53.773Z,21.32
2022-08-20T01:39:32.416Z,21.34
2022-08-20T01:42:14.737Z,21.35
2022-08-20T01:44:44.100Z,21.33
2022-08-20T01:47:16.912Z,21.31
2022-08-20T01:49:50.876Z,21.31
2022-08-20T01:52:40.828Z,21.30
2022-08-20T01:55:09.388Z,21.30
2022-08-20T01:57:39.385Z,21.30
2022-08-20T02:00:19.842Z,21.31
2022-08-20T02:02:49.246Z,21.31
2022-08-20T02:05:17.989Z,21.29
2022-08-20T02:07:44.892Z,21.26
2022-08-20T02:10:15.821Z,21.23
2022-08-20T02:12:43.276Z,21.20
2022-08-20T02:15:12.337Z,21.17
2022-08-20T02:17:41.136Z,21.17
2022-08-20T02:20:23.484Z,21.17
2022-08-20T02:22:58.076Z,21.18
2022-08-20T02:25:28.732Z,21.21
2022-08-20T02:28:00.198Z,21.22
2022-08-20T02:30:32.755Z,21.21
2022-08-20T02:33:07.408Z,21.21
2022-08-20T02:35:35.149Z,21.19
2022-08-20T02:38:02.402Z,21.14
2022-08-20T02:40:31.440Z,21.08
2022-08-20T02:43:00.970Z,21.03
2022-08-20T02:45:30.905Z,20.97
2022-08-20T02:47:58.681Z,20.93
2022-08-20T02:50:27.062Z,20.88
2022-08-20T02:52:54.236Z,20.81
2022-08-20T02:55:27.384Z,20.76
2022-08-20T02:57:58.030Z,20.73
2022-08-20T03:00:28.400Z,20.67
2022-08-20T03:02:55.882Z,20.61
2022-08-20T03:05:22.801Z,20.56
2022-08-20T03:07:59.293Z,20.53
2022-08-20T03:10:33.364Z,20.49
2022-08-20T03:13:02.156Z,20.46
2022-08-20T03:15:31.878Z,20.41
2022-08-20T03:18:00.388Z,20.36
2022-08-20T03:20:28.469Z,20.32
2022-08-20T03:22:55.665Z,20.31
2022-08-20T03:25:23.176Z,20.28
2022-08-20T03:27:54.969Z,20.23
2022-08-20T03:30:25.135Z,20.21
2022-08-20T03:32:52.799Z,20.20
2022-08-20T03:35:22.377Z,20.18
2022-08-20T03:37:49.980Z,20.18
2022-08-20T03:40:23.684Z,20.17
2022-08-20T03:42:51.972Z,20.17
2022-08-20T03:45:21.331Z,20.18
2022-08-20T03:47:49.622Z,20.19
2022-08-20T03:50:23.637Z,20.20
2022-08-20T03:52:52.410Z,20.20
2022-08-20T03:55:21.408Z,20.21
2022-08-20T03:57:56.265Z,20.25
2022-08-20T04:00:30.743Z,20.28
2022-08-20T04:02:57.720Z,20.32
2022-08-20T04:05:25.150Z,20.35
2022-08-20T04:07:57.535Z,20.39
2022-08-20T04:10:31.232Z,20.44
2022-08-20T04:12:58.046Z,20.52
2022-08-20T04:15:26.605Z,20.59
2022-08-20T04:17:53.708Z,20.67
2022-08-20T04:20:25.432Z,20.76
2022-08-20T04:22:59.204Z,20.85
2022-08-20T04:25:36.045Z,20.95
2022-08-20T04:28:07.964Z,21.05
2022-08-20T04:30:35.684Z,21.15
2022-08-20T04:33:03.156Z,21.23
2022-08-20T04:35:31.313Z,21.33
2022-08-20T04:38:10.960Z,21.41
2022-08-20T04:40:52.896Z,21.51
2022-08-20T04:43:22.731Z,21.59
2022-08-20T04:45:51.393Z,21.69
2022-08-20T04:48:19.953Z,21.76
2022-08-20T04:50:46.893Z,21.83
2022-08-20T04:53:17.465Z,21.90
2022-08-20T04:55:46.007Z,22.00
2022-08-20T04:58:17.953Z,22.09
2022-08-20T05:00:51.211Z,22.17
2022-08-20T05:03:18.823Z,22.18
2022-08-20T05:05:46.984Z,22.23
2022-08-20T05:08:19.787Z,22.32
2022-08-20T05:10:47.274Z,22.38
2022-08-20T05:13:14.152Z,22.47
2022-08-20T05:15:41.524Z,22.52
2022-08-20T05:18:08.823Z,22.56
2022-08-20T05:20:41.774Z,22.61
2022-08-20T05:23:11.818Z,22.65
2022-08-20T05:25:41.804Z,22.69
2022-08-20T05:28:21.137Z,22.76
2022-08-20T05:30:49.652Z,22.91
2022-08-20T05:33:19.297Z,23.04
2022-08-20T05:35:48.797Z,23.17
2022-08-20T05:38:20.243Z,23.29
2022-08-20T05:40:47.497Z,23.42
2022-08-20T05:43:15.083Z,23.51
2022-08-20T05:45:44.092Z,23.61
2022-08-20T05:48:15.854Z,23.72
2022-08-20T05:50:46.203Z,23.80
2022-08-20T05:53:13.015Z,23.87
2022-08-20T05:55:39.889Z,23.96
2022-08-20T05:58:14.504Z,24.02
2022-08-20T06:00:41.340Z,24.07
2022-08-20T06:03:26.571Z,24.10
2022-08-20T06:05:53.827Z,24.12
2022-08-20T06:08:20.711Z,24.17
2022-08-20T06:10:47.568Z,24.23
2022-08-20T06:13:14.434Z,24.26
2022-08-20T06:15:41.810Z,24.27
2022-08-20T06:18:27.999Z,24.30
2022-08-20T06:20:56.080Z,24.43
2022-08-20T06:23:24.658Z,24.55
2022-08-20T06:25:52.098Z,24.59
2022-08-20T06:28:19.055Z,24.64
2022-08-20T06:30:46.276Z,24.71
2022-08-20T06:33:13.110Z,24.76
2022-08-20T06:35:40.456Z,24.79
2022-08-20T06:38:11.901Z,24.84
2022-08-20T06:40:39.039Z,24.87
2022-08-20T06:43:08.448Z,24.91
2022-08-20T06:45:38.235Z,24.98
2022-08-20T06:48:09.519Z,25.05
2022-08-20T06:50:47.176Z,25.13
2022-08-20T06:53:19.962Z,25.21
2022-08-20T06:55:51.808Z,25.27
2022-08-20T06:58:37.663Z,25.35
2022-08-20T07:01:09.528Z,25.42
2022-08-20T07:03:40.303Z,25.51
2022-08-20T07:06:26.332Z,25.59
2022-08-20T07:08:55.107Z,25.67
2022-08-20T07:11:27.782Z,25.74
2022-08-20T07:13:58.023Z,25.78
2022-08-20T07:16:25.197Z,25.82
2022-08-20T07:18:52.144Z,25.85
2022-08-20T07:21:18.968Z,25.92
2022-08-20T07:23:48.772Z,25.97
2022-08-20T07:26:16.595Z,26.02
2022-08-20T07:28:43.498Z,26.07
2022-08-20T07:31:31.209Z,26.13
2022-08-20T07:33:58.643Z,26.20
2022-08-20T07:36:27.555Z,26.28
2022-08-20T07:38:54.653Z,26.35
2022-08-20T07:41:24.415Z,26.44
2022-08-20T07:43:51.296Z,26.53
2022-08-20T07:46:21.033Z,26.62
2022-08-20T07:48:49.431Z,26.75
2022-08-20T07:51:19.454Z,26.88
2022-08-20T07:53:48.129Z,26.97
2022-08-20T07:56:19.916Z,27.08
2022-08-20T07:58:51.552Z,27.15
2022-08-20T08:01:25.193Z,27.19
2022-08-20T08:03:52.545Z,27.26
2022-08-20T08:06:29.423Z,27.32
2022-08-20T08:09:04.217Z,27.35
2022-08-20T08:11:34.306Z,27.38
2022-08-20T08:14:05.628Z,27.45
2022-08-20T08:16:33.977Z,27.50
2022-08-20T08:19:03.552Z,27.52
2022-08-20T08:21:30.996Z,27.54
2022-08-20T08:23:58.364Z,27.57
2022-08-20T08:26:28.163Z,27.69
2022-08-20T08:28:55.354Z,27.81
2022-08-20T08:31:22.188Z,27.88
2022-08-20T08:33:48.974Z,27.94
2022-08-20T08:36:16.561Z,28.02
2022-08-20T08:38:45.309Z,28.08
2022-08-20T08:41:35.849Z,28.12
2022-08-20T08:44:12.263Z,28.25
2022-08-20T08:46:44.097Z,28.33
2022-08-20T08:49:17.703Z,28.35
2022-08-20T08:51:55.546Z,28.37
2022-08-20T08:54:28.754Z,28.39
2022-08-20T08:56:55.624Z,28.41
2022-08-20T08:59:23.060Z,28.49
2022-08-20T09:01:57.359Z,28.57
2022-08-20T09:04:40.644Z,28.67
2022-08-20T09:07:15.207Z,28.77
2022-08-20T09:09:46.100Z,28.86
2022-08-20T09:12:18.428Z,28.91
2022-08-20T09:14:47.608Z,28.96
2022-08-20T09:17:16.769Z,28.97
2022-08-20T09:19:43.830Z,29.02
2022-08-20T09:22:18.122Z,29.03
2022-08-20T09:24:46.220Z,29.07
2022-08-20T09:27:13.663Z,29.09
2022-08-20T09:29:41.033Z,29.12
2022-08-20T09:32:16.281Z,29.21
2022-08-20T09:34:47.940Z,29.30
2022-08-20T09:37:15.262Z,29.36
2022-08-20T09:39:42.819Z,29.43
2022-08-20T09:42:26.480Z,29.49
2022-08-20T09:44:54.152Z,29.53
2022-08-20T09:47:21.531Z,29.56
2022-08-20T09:49:48.421Z,29.61
2022-08-20T09:52:32.896Z,29.63
2022-08-20T09:55:16.233Z,29.66
2022-08-20T09:57:43.889Z,29.69
2022-08-20T10:00:14.204Z,29.70
2022-08-20T10:02:41.980Z,29.73
2022-08-20T10:05:12.266Z,29.80
2022-08-20T10:07:40.984Z,29.87
2022-08-20T10:10:12.801Z,29.92
2022-08-20T10:12:43.310Z,29.96
2022-08-20T10:15:10.874Z,30.01
2022-08-20T10:17:44.402Z,30.06
2022-08-20T10:20:14.090Z,30.11
2022-08-20T10:22:41.164Z,30.15
2022-08-20T10:25:08.499Z,30.17
2022-08-20T10:27:35.747Z,30.20
2022-08-20T10:30:05.780Z,30.28
2022-08-20T10:32:32.765Z,30.35
2022-08-20T10:34:59.810Z,30.36
2022-08-20T10:37:26.897Z,30.35
2022-08-20T10:39:55.504Z,30.37
2022-08-20T10:42:23.243Z,30.40
2022-08-20T10:44:50.113Z,30.45
2022-08-20T10:47:27.860Z,30.50
2022-08-20T10:49:57.191Z,30.58
2022-08-20T10:52:25.335Z,30.67
2022-08-20T10:54:53.104Z,30.75
2022-08-20T10:57:27.644Z,30.80
2022-08-20T10:59:57.458Z,30.80
2022-08-20T11:02:25.744Z,30.81
2022-08-20T11:04:55.223Z,30.85
2022-08-20T11:07:49.445Z,30.94
2022-08-20T11:10:15.878Z,30.99
2022-08-20T11:12:46.083Z,31.00
2022-08-20T11:15:15.280Z,30.98
2022-08-20T11:17:43.625Z,30.97
2022-08-20T11:20:13.963Z,30.97
2022-08-20T11:22:40.841Z,30.99
2022-08-20T11:25:08.805Z,31.01
2022-08-20T11:27:40.637Z,31.05
2022-08-20T11:30:12.661Z,31.10
2022-08-20T11:32:39.779Z,31.16
2022-08-20T11:35:24.923Z,31.24
2022-08-20T11:37:56.176Z,31.35
2022-08-20T11:40:24.891Z,31.37
2022-08-20T11:43:13.688Z,31.36
2022-08-20T11:45:38.942Z,31.39
2022-08-20T11:48:05.869Z,31.42
2022-08-20T11:50:32.668Z,31.43
2022-08-20T11:53:01.596Z,31.43
2022-08-20T11:55:31.024Z,31.42
2022-08-20T11:57:59.998Z,31.40
2022-08-20T12:00:32.229Z,31.38
2022-08-20T12:03:08.643Z,31.36
2022-08-20T12:05:39.309Z,31.36
2022-08-20T12:08:07.805Z,31.40
2022-08-20T12:10:36.030Z,31.47
2022-08-20T12:13:04.593Z,31.50
2022-08-20T12:15:36.612Z,31.53
2022-08-20T12:18:08.200Z,31.55
2022-08-20T12:20:37.247Z,31.57
2022-08-20T12:23:04.872Z,31.56
2022-08-20T12:25:32.560Z,31.55
2022-08-20T12:27:59.458Z,31.57
2022-08-20T12:30:26.469Z,31.59
2022-08-20T12:32:53.507Z,31.62
2022-08-20T12:35:20.584Z,31.72
2022-08-20T12:37:49.172Z,31.81
2022-08-20T12:40:31.796Z,31.86
2022-08-20T12:43:00.854Z,31.89
2022-08-20T12:45:28.623Z,31.92
2022-08-20T12:48:08.048Z,31.95
2022-08-20T12:50:37.346Z,31.93
2022-08-20T12:53:04.916Z,31.86
2022-08-20T12:55:32.498Z,31.81
2022-08-20T12:58:02.243Z,31.76
2022-08-20T13:00:33.971Z,31.74
2022-08-20T13:03:04.581Z,31.73
2022-08-20T13:05:33.809Z,31.72
2022-08-20T13:08:01.667Z,31.70
2022-08-20T13:10:32.745Z,31.68
2022-08-20T13:13:03.402Z,31.66
2022-08-20T13:15:32.117Z,31.63
2022-08-20T13:18:02.538Z,31.60
2022-08-20T13:20:34.517Z,31.59
2022-08-20T13:23:04.433Z,31.62
2022-08-20T13:25:32.913Z,31.63
2022-08-20T13:28:03.758Z,31.64
2022-08-20T13:30:33.377Z,31.64
2022-08-20T13:33:00.793Z,31.63
2022-08-20T13:35:28.711Z,31.60
2022-08-20T13:37:55.607Z,31.56
2022-08-20T13:40:22.685Z,31.51
2022-08-20T13:42:49.732Z,31.46
2022-08-20T13:45:16.792Z,31.42
2022-08-20T13:47:43.689Z,31.31
2022-08-20T13:50:15.676Z,31.14
2022-08-20T13:52:44.062Z,30.85
2022-08-20T13:55:16.381Z,30.58
2022-08-20T13:57:43.837Z,30.37
2022-08-20T14:00:16.889Z,30.22
2022-08-20T14:02:44.548Z,30.07
2022-08-20T14:05:12.410Z,29.96
2022-08-20T14:07:44.680Z,29.84
2022-08-20T14:10:23.549Z,29.70
2022-08-20T14:12:51.109Z,29.50
2022-08-20T14:15:18.552Z,29.31
2022-08-20T14:17:53.792Z,29.15
2022-08-20T14:20:26.015Z,29.02
2022-08-20T14:22:57.584Z,28.88
2022-08-20T14:25:26.264Z,28.68
2022-08-20T14:27:54.144Z,28.55
2022-08-20T14:30:30.014Z,28.41
2022-08-20T14:32:57.205Z,28.25
2022-08-20T14:35:24.336Z,28.11
2022-08-20T14:37:53.458Z,28.00
2022-08-20T14:40:22.812Z,27.94
2022-08-20T14:42:51.675Z,27.90
2022-08-20T14:45:21.175Z,27.86
2022-08-20T14:47:54.085Z,27.83
2022-08-20T14:50:32.994Z,27.78
2022-08-20T14:53:01.306Z,27.73
2022-08-20T14:55:36.571Z,27.65
2022-08-20T14:58:12.522Z,27.58
2022-08-20T15:00:40.377Z,27.52
2022-08-20T15:03:07.539Z,27.49
2022-08-20T15:05:39.673Z,27.47
2022-08-20T15:08:08.093Z,27.47
2022-08-20T15:10:39.110Z,27.45
2022-08-20T15:13:06.235Z,27.41
2022-08-20T15:15:34.352Z,27.41
2022-08-20T15:18:01.209Z,27.41
2022-08-20T15:20:31.981Z,27.38
2022-08-20T15:22:59.927Z,27.32
2022-08-20T15:25:36.481Z,27.25
2022-08-20T15:28:07.986Z,27.22
2022-08-20T15:30:36.547Z,27.18
2022-08-20T15:33:03.709Z,27.14
2022-08-20T15:35:30.548Z,27.11
2022-08-20T15:37:58.944Z,27.08
2022-08-20T15:40:29.297Z,27.07
2022-08-20T15:42:59.396Z,27.03
2022-08-20T15:45:27.255Z,27.00
2022-08-20T15:48:07.688Z,26.95
2022-08-20T15:50:55.339Z,26.89
2022-08-20T15:53:56.508Z,26.84
2022-08-20T15:56:23.183Z,26.80
2022-08-20T15:59:33.129Z,26.76
2022-08-20T16:02:05.839Z,26.69
2022-08-20T16:05:15.697Z,26.63
2022-08-20T16:08:07.035Z,26.57
2022-08-20T16:10:36.887Z,26.52
2022-08-20T16:13:23.773Z,26.50
2022-08-20T16:15:54.419Z,26.49
2022-08-20T16:18:31.888Z,26.51
2022-08-20T16:21:03.574Z,26.50
2022-08-20T16:23:36.341Z,26.48
2022-08-20T16:26:32.051Z,26.45
2022-08-20T16:29:13.359Z,26.42
2022-08-20T16:31:53.005Z,26.40
2022-08-20T16:34:41.924Z,26.38
2022-08-20T16:37:47.181Z,26.35
2022-08-20T16:40:40.955Z,26.34
2022-08-20T16:43:11.937Z,26.33
2022-08-20T16:45:57.849Z,26.32
2022-08-20T16:48:37.976Z,26.31
2022-08-20T16:51:16.664Z,26.29
2022-08-20T16:53:43.593Z,26.27
2022-08-20T16:56:10.680Z,26.24
2022-08-20T16:58:37.659Z,26.23
2022-08-20T17:01:12.761Z,26.20
2022-08-20T17:03:50.248Z,26.19
2022-08-20T17:06:38.089Z,26.17
2022-08-20T17:09:13.770Z,26.16
2022-08-20T17:11:41.276Z,26.13
2022-08-20T17:14:17.153Z,26.10
2022-08-20T17:16:51.775Z,26.08
2022-08-20T17:19:28.435Z,26.05
2022-08-20T17:22:07.700Z,26.01
2022-08-20T17:24:37.206Z,25.95
2022-08-20T17:27:10.780Z,25.92
2022-08-20T17:29:50.732Z,25.87
2022-08-20T17:32:28.286Z,25.82
2022-08-20T17:34:59.180Z,25.79
2022-08-20T17:37:36.290Z,25.75
2022-08-20T17:40:23.935Z,25.70
2022-08-20T17:43:09.476Z,25.65
2022-08-20T17:45:44.415Z,25.62
2022-08-20T17:48:33.576Z,25.58
2022-08-20T17:51:14.567Z,25.53
2022-08-20T17:53:45.579Z,25.49
2022-08-20T17:56:36.312Z,25.45
2022-08-20T18:00:00.265Z,25.41
2022-08-20T18:02:16.353Z,25.34
2022-08-20T18:04:45.348Z,25.28
2022-08-20T18:07:25.028Z,25.23
2022-08-20T18:10:05.164Z,25.19
2022-08-20T18:12:44.352Z,25.14
2022-08-20T18:15:24.112Z,25.10
2022-08-20T18:18:56.756Z,25.05
2022-08-20T18:21:42.343Z,25.00
2022-08-20T18:24:18.400Z,24.96
2022-08-20T18:27:18.403Z,24.94
2022-08-20T18:29:56.358Z,24.91
2022-08-20T18:32:38.287Z,24.89
2022-08-20T18:35:11.915Z,24.85
2022-08-20T18:37:40.881Z,24.82
2022-08-20T18:40:40.993Z,24.79
2022-08-20T18:43:25.055Z,24.77
2022-08-20T18:45:52.306Z,24.73
2022-08-20T18:48:24.398Z,24.68
2022-08-20T18:50:56.001Z,24.65
2022-08-20T18:53:33.996Z,24.61
2022-08-20T18:56:03.945Z,24.58
2022-08-20T18:58:47.963Z,24.53
2022-08-20T19:01:14.945Z,24.46
2022-08-20T19:03:46.991Z,24.42
2022-08-20T19:06:38.600Z,24.39
2022-08-20T19:09:10.174Z,24.33
2022-08-20T19:11:41.688Z,24.28
2022-08-20T19:14:42.776Z,24.25
2022-08-20T19:17:26.848Z,24.17
2022-08-20T19:20:01.368Z,24.12
2022-08-20T19:22:29.021Z,24.06
2022-08-20T19:24:58.072Z,24.04
2022-08-20T19:27:28.477Z,24.04
2022-08-20T19:29:57.227Z,23.98
2022-08-20T19:32:30.551Z,23.91
2022-08-20T19:35:06.652Z,23.84
2022-08-20T19:37:50.971Z,23.80
2022-08-20T19:40:27.067Z,23.78
2022-08-20T19:43:00.158Z,23.74
2022-08-20T19:45:43.553Z,23.69
2022-08-20T19:48:28.542Z,23.63
2022-08-20T19:52:00.452Z,23.59
2022-08-20T19:54:29.127Z,23.49
2022-08-20T19:56:58.657Z,23.44
2022-08-20T19:59:25.624Z,23.39
2022-08-20T20:02:02.385Z,23.34
2022-08-20T20:04:55.123Z,23.28
2022-08-20T20:07:34.782Z,23.22
2022-08-20T20:10:05.156Z,23.19
2022-08-20T20:12:34.024Z,23.17
2022-08-20T20:15:02.323Z,23.14
2022-08-20T20:17:36.079Z,23.09
2022-08-20T20:20:30.717Z,23.06
2022-08-20T20:23:13.610Z,23.03
2022-08-20T20:25:44.972Z,23.01
2022-08-20T20:28:26.873Z,22.99
2022-08-20T20:31:04.688Z,22.97
2022-08-20T20:33:40.894Z,22.93
2022-08-20T20:36:17.389Z,22.92
2022-08-20T20:39:41.063Z,22.91
2022-08-20T20:42:10.771Z,22.89
2022-08-20T20:44:42.742Z,22.85
2022-08-20T20:47:31.341Z,22.82
2022-08-20T20:50:04.614Z,22.77
2022-08-20T20:52:46.678Z,22.72
2022-08-20T20:55:22.965Z,22.67
2022-08-20T20:57:51.464Z,22.63
2022-08-20T21:00:24.495Z,22.61
2022-08-20T21:02:51.453Z,22.60
2022-08-20T21:05:22.651Z,22.57
2022-08-20T21:08:01.767Z,22.54
2022-08-20T21:10:34.256Z,22.52
2022-08-20T21:13:03.152Z,22.50
2022-08-20T21:15:31.383Z,22.46
2022-08-20T21:18:01.321Z,22.45
2022-08-20T21:20:29.050Z,22.43
2022-08-20T21:22:59.402Z,22.40
2022-08-20T21:25:28.797Z,22.38
2022-08-20T21:27:55.675Z,22.35
2022-08-20T21:30:23.935Z,22.32
2022-08-20T21:32:51.157Z,22.32
2022-08-20T21:35:18.734Z,22.31
2022-08-20T21:37:45.657Z,22.30
2022-08-20T21:40:13.636Z,22.31
2022-08-20T21:42:40.734Z,22.30
2022-08-20T21:45:13.277Z,22.32
2022-08-20T21:47:41.265Z,22.33
2022-08-20T21:50:09.932Z,22.34
2022-08-20T21:52:37.437Z,22.34
2022-08-20T21:55:10.577Z,22.35
2022-08-20T21:57:37.562Z,22.34
2022-08-20T22:00:18.245Z,22.33
2022-08-20T22:02:45.076Z,22.30
2022-08-20T22:05:11.929Z,22.24
2022-08-20T22:07:38.761Z,22.23
2022-08-20T22:10:06.744Z,22.22
2022-08-20T22:12:33.831Z,22.20
2022-08-20T22:15:00.707Z,22.18
2022-08-20T22:17:27.674Z,22.15
2022-08-20T22:19:54.936Z,22.11
2022-08-20T22:22:22.668Z,22.09
2022-08-20T22:24:49.639Z,22.07
2022-08-20T22:27:16.635Z,22.05
2022-08-20T22:29:43.536Z,22.02
2022-08-20T22:32:12.411Z,22.00
2022-08-20T22:34:39.532Z,21.97
2022-08-20T22:37:06.787Z,21.95
2022-08-20T22:39:34.081Z,21.93
2022-08-20T22:42:01.064Z,21.89
2022-08-20T22:44:28.043Z,21.85
2022-08-20T22:47:00.706Z,21.82
2022-08-20T22:49:30.263Z,21.79
2022-08-20T22:51:57.207Z,21.74
2022-08-20T22:54:25.034Z,21.70
2022-08-20T22:56:53.035Z,21.68
2022-08-20T22:59:22.099Z,21.65
2022-08-20T23:01:51.107Z,21.62
2022-08-20T23:04:28.867Z,21.59
2022-08-20T23:06:57.074Z,21.55
2022-08-20T23:09:25.367Z,21.48
2022-08-20T23:11:52.550Z,21.40
2022-08-20T23:14:20.172Z,21.36
2022-08-20T23:16:56.959Z,21.36
2022-08-20T23:19:24.647Z,21.35
2022-08-20T23:21:51.779Z,21.34
2022-08-20T23:24:19.761Z,21.32
2022-08-20T23:26:53.377Z,21.30
2022-08-20T23:29:25.433Z,21.30
2022-08-20T23:31:55.720Z,21.30
2022-08-20T23:34:23.426Z,21.29
2022-08-20T23:36:51.803Z,21.27
2022-08-20T23:39:19.773Z,21.26
2022-08-20T23:41:48.077Z,21.22
2022-08-20T23:44:26.598Z,21.21
2022-08-20T23:47:01.609Z,21.18
2022-08-20T23:49:30.600Z,21.14
2022-08-20T23:52:00.011Z,21.16
2022-08-20T23:54:32.306Z,21.17
2022-08-20T23:56:59.190Z,21.19
2022-08-20T23:59:26.162Z,21.22
